Terminal Aerodrome Forecast
Issued by NWS

Home | Current Version | Previous Version | Text Only | Print | Product List | Glossary On
Versions: 1 2 3 4 5 6 7 8 9 10 11 12 13 14 15 16
000
FTUS46 KOTX 280536
TAFPUW
TAF
KPUW 280536Z 2806/2906 24005KT P6SM SCT050 BKN200
     FM281200 24007KT P6SM FEW005 SCT060 BKN200
     FM281600 22008G15KT P6SM SCT050 BKN200
     FM282100 25006KT P6SM SCT040 SCT200
     FM290300 VRB03KT P6SM BKN180=

USA.gov is the U.S. government's official web portal to all federal, state and local government web resources and services.